KSUE/SUE METAR and TAF weather

Enter ICAO airport designator
Station Type Date Time Source
KSUE METAR 2020/01/29 12:56 UTC NOAA

KSUE 291256Z AUTO 01007KT 10SM OVC023 M05/M07 A3022 RMK AO2 SLP245 T10501067 FZRANO $


Station Type Date Time Source
KSUE Decoded METAR 2020/01/29 12:56 UTC NOAA

Sturgeon Bay, WI, United States (KSUE) 44-51N 087-25W
Jan 29, 2020 - 07:56 AM EST / 2020.01.29 1256 UTC
Wind: from the N (010 degrees) at 8 MPH (7 KT):0
Visibility: 10 mile(s):0
Sky conditions: overcast
Temperature: 23.0 F (-5.0 C)
Windchill: 14 F (-10 C):1
Dew Point: 19.9 F (-6.7 C)
Relative Humidity: 87%
Pressure (altimeter): 30.22 in. Hg (1023 hPa)
ob: KSUE 291256Z AUTO 01007KT 10SM OVC023 M05/M07 A3022 RMK AO2 SLP245 T10501067 FZRANO
cycle: 13

Station Type Date Time Source
KSUE TAF UTC NOAA

Error!

Example: see airport list